sensor_id;sensor_type;location;lat;lon;timestamp;P1;durP1;ratioP1;P2;durP2;ratioP2
39772;SDS011;25451;51.960;6.250;2024-01-15T00:00:09;2.37;;;0.63;;
39772;SDS011;25451;51.960;6.250;2024-01-15T00:02:34;2.55;;;0.90;;
39772;SDS011;25451;51.960;6.250;2024-01-15T00:05:00;2.43;;;1.07;;
39772;SDS011;25451;51.960;6.250;2024-01-15T00:07:25;2.50;;;0.97;;
39772;SDS011;25451;51.960;6.250;2024-01-15T00:09:50;2.83;;;1.00;;
39772;SDS011;25451;51.960;6.250;2024-01-15T00:12:15;1.23;;;0.83;;
39772;SDS011;25451;51.960;6.250;2024-01-15T00:14:41;5.30;;;1.00;;
39772;SDS011;25451;51.960;6.250;2024-01-15T00:17:07;2.55;;;0.82;;
39772;SDS011;25451;51.960;6.250;2024-01-15T00:19:32;3.83;;;1.20;;
39772;SDS011;25451;51.960;6.250;2024-01-15T00:21:58;3.40;;;1.07;;
39772;SDS011;25451;51.960;6.250;2024-01-15T00:24:24;1.85;;;0.90;;
39772;SDS011;25451;51.960;6.250;2024-01-15T00:26:49;3.77;;;0.70;;
39772;SDS011;25451;51.960;6.250;2024-01-15T00:29:14;3.20;;;0.87;;
39772;SDS011;25451;51.960;6.250;2024-01-15T00:31:40;1.87;;;0.90;;
39772;SDS011;25451;51.960;6.250;2024-01-15T00:34:05;2.67;;;0.73;;
39772;SDS011;25451;51.960;6.250;2024-01-15T00:36:30;3.13;;;1.03;;
39772;SDS011;25451;51.960;6.250;2024-01-15T00:38:55;1.07;;;0.60;;
39772;SDS011;25451;51.960;6.250;2024-01-15T00:41:21;2.50;;;1.10;;
39772;SDS011;25451;51.960;6.250;2024-01-15T00:43:46;3.93;;;0.77;;
39772;SDS011;25451;51.960;6.250;2024-01-15T00:46:14;3.00;;;0.70;;
39772;SDS011;25451;51.960;6.250;2024-01-15T00:48:39;1.73;;;1.10;;
39772;SDS011;25451;51.960;6.250;2024-01-15T00:51:04;3.77;;;0.83;;
39772;SDS011;25451;51.960;6.250;2024-01-15T00:53:30;4.90;;;0.70;;
39772;SDS011;25451;51.960;6.250;2024-01-15T00:55:55;5.07;;;0.90;;
39772;SDS011;25451;51.960;6.250;2024-01-15T00:58:20;2.23;;;0.50;;
39772;SDS011;25451;51.960;6.250;2024-01-15T01:00:45;2.53;;;0.90;;
39772;SDS011;25451;51.960;6.250;2024-01-15T01:03:11;2.90;;;0.80;;
39772;SDS011;25451;51.960;6.250;2024-01-15T01:05:36;2.30;;;0.70;;
39772;SDS011;25451;51.960;6.250;2024-01-15T01:08:02;2.55;;;0.50;;
39772;SDS011;25451;51.960;6.250;2024-01-15T01:10:28;1.40;;;0.60;;
39772;SDS011;25451;51.960;6.250;2024-01-15T01:12:53;2.40;;;0.70;;
39772;SDS011;25451;51.960;6.250;2024-01-15T01:15:18;4.80;;;0.80;;
39772;SDS011;25451;51.960;6.250;2024-01-15T01:17:44;3.13;;;1.10;;
39772;SDS011;25451;51.960;6.250;2024-01-15T01:20:09;3.97;;;0.60;;
39772;SDS011;25451;51.960;6.250;2024-01-15T01:22:35;2.37;;;0.67;;
39772;SDS011;25451;51.960;6.250;2024-01-15T01:25:01;2.53;;;0.60;;
39772;SDS011;25451;51.960;6.250;2024-01-15T01:27:26;4.33;;;0.77;;
39772;SDS011;25451;51.960;6.250;2024-01-15T01:29:51;1.20;;;0.60;;
39772;SDS011;25451;51.960;6.250;2024-01-15T01:32:17;5.68;;;1.15;;
39772;SDS011;25451;51.960;6.250;2024-01-15T01:34:43;2.37;;;0.60;;
39772;SDS011;25451;51.960;6.250;2024-01-15T01:37:08;4.40;;;0.80;;
39772;SDS011;25451;51.960;6.250;2024-01-15T01:39:34;2.85;;;0.70;;
39772;SDS011;25451;51.960;6.250;2024-01-15T01:41:59;3.10;;;0.70;;
39772;SDS011;25451;51.960;6.250;2024-01-15T01:44:25;2.07;;;0.50;;
39772;SDS011;25451;51.960;6.250;2024-01-15T01:46:50;1.53;;;0.70;;
39772;SDS011;25451;51.960;6.250;2024-01-15T01:49:15;4.67;;;0.73;;
39772;SDS011;25451;51.960;6.250;2024-01-15T01:51:42;1.58;;;0.60;;
39772;SDS011;25451;51.960;6.250;2024-01-15T01:54:07;5.00;;;0.70;;
39772;SDS011;25451;51.960;6.250;2024-01-15T01:56:34;1.25;;;0.63;;
39772;SDS011;25451;51.960;6.250;2024-01-15T01:59:00;4.63;;;0.52;;
39772;SDS011;25451;51.960;6.250;2024-01-15T02:01:26;3.07;;;0.97;;
39772;SDS011;25451;51.960;6.250;2024-01-15T02:03:52;2.00;;;0.70;;
39772;SDS011;25451;51.960;6.250;2024-01-15T02:06:18;3.25;;;0.85;;
39772;SDS011;25451;51.960;6.250;2024-01-15T02:08:43;3.87;;;0.73;;
39772;SDS011;25451;51.960;6.250;2024-01-15T02:11:09;4.00;;;0.80;;
39772;SDS011;25451;51.960;6.250;2024-01-15T02:13:34;3.17;;;1.00;;
39772;SDS011;25451;51.960;6.250;2024-01-15T02:15:59;3.73;;;0.70;;
39772;SDS011;25451;51.960;6.250;2024-01-15T02:18:24;4.37;;;0.70;;
39772;SDS011;25451;51.960;6.250;2024-01-15T02:20:50;6.20;;;1.07;;
39772;SDS011;25451;51.960;6.250;2024-01-15T02:23:15;2.77;;;0.63;;
39772;SDS011;25451;51.960;6.250;2024-01-15T02:25:44;4.13;;;0.90;;
39772;SDS011;25451;51.960;6.250;2024-01-15T02:28:15;1.88;;;1.00;;
39772;SDS011;25451;51.960;6.250;2024-01-15T02:30:42;2.47;;;0.60;;
39772;SDS011;25451;51.960;6.250;2024-01-15T02:33:09;3.15;;;0.80;;
39772;SDS011;25451;51.960;6.250;2024-01-15T02:35:35;3.60;;;1.10;;
39772;SDS011;25451;51.960;6.250;2024-01-15T02:38:04;7.60;;;1.08;;
39772;SDS011;25451;51.960;6.250;2024-01-15T02:40:31;2.92;;;0.95;;
39772;SDS011;25451;51.960;6.250;2024-01-15T02:42:56;3.40;;;0.87;;
39772;SDS011;25451;51.960;6.250;2024-01-15T02:45:23;3.55;;;1.33;;
39772;SDS011;25451;51.960;6.250;2024-01-15T02:47:48;4.47;;;1.05;;
39772;SDS011;25451;51.960;6.250;2024-01-15T02:50:14;3.28;;;0.85;;
39772;SDS011;25451;51.960;6.250;2024-01-15T02:52:39;4.10;;;0.93;;
39772;SDS011;25451;51.960;6.250;2024-01-15T02:55:05;3.57;;;0.80;;
39772;SDS011;25451;51.960;6.250;2024-01-15T02:57:30;3.00;;;0.70;;
39772;SDS011;25451;51.960;6.250;2024-01-15T02:59:56;4.50;;;1.00;;
39772;SDS011;25451;51.960;6.250;2024-01-15T03:02:21;3.87;;;0.97;;
39772;SDS011;25451;51.960;6.250;2024-01-15T03:04:47;4.67;;;1.13;;
39772;SDS011;25451;51.960;6.250;2024-01-15T03:07:12;6.13;;;0.87;;
39772;SDS011;25451;51.960;6.250;2024-01-15T03:09:37;4.88;;;0.80;;
39772;SDS011;25451;51.960;6.250;2024-01-15T03:12:03;3.43;;;0.90;;
39772;SDS011;25451;51.960;6.250;2024-01-15T03:14:29;5.05;;;1.10;;
39772;SDS011;25451;51.960;6.250;2024-01-15T03:16:54;1.80;;;0.80;;
39772;SDS011;25451;51.960;6.250;2024-01-15T03:19:20;6.57;;;1.10;;
39772;SDS011;25451;51.960;6.250;2024-01-15T03:21:45;5.10;;;0.87;;
39772;SDS011;25451;51.960;6.250;2024-01-15T03:24:10;4.73;;;1.10;;
39772;SDS011;25451;51.960;6.250;2024-01-15T03:26:36;6.70;;;1.17;;
39772;SDS011;25451;51.960;6.250;2024-01-15T03:29:01;4.03;;;0.87;;
39772;SDS011;25451;51.960;6.250;2024-01-15T03:31:27;2.88;;;1.13;;
39772;SDS011;25451;51.960;6.250;2024-01-15T03:33:52;4.17;;;1.00;;
39772;SDS011;25451;51.960;6.250;2024-01-15T03:36:17;5.23;;;0.90;;
39772;SDS011;25451;51.960;6.250;2024-01-15T03:38:42;5.37;;;0.80;;
39772;SDS011;25451;51.960;6.250;2024-01-15T03:41:08;2.83;;;0.83;;
39772;SDS011;25451;51.960;6.250;2024-01-15T03:43:33;4.27;;;1.20;;
39772;SDS011;25451;51.960;6.250;2024-01-15T03:45:58;1.60;;;0.67;;
39772;SDS011;25451;51.960;6.250;2024-01-15T03:48:24;2.17;;;0.63;;
39772;SDS011;25451;51.960;6.250;2024-01-15T03:50:49;4.50;;;0.90;;
39772;SDS011;25451;51.960;6.250;2024-01-15T03:53:14;1.80;;;0.60;;
39772;SDS011;25451;51.960;6.250;2024-01-15T03:55:40;2.37;;;0.90;;
39772;SDS011;25451;51.960;6.250;2024-01-15T03:58:05;2.47;;;0.80;;
39772;SDS011;25451;51.960;6.250;2024-01-15T04:00:30;4.43;;;1.13;;
39772;SDS011;25451;51.960;6.250;2024-01-15T04:02:56;3.20;;;0.63;;
39772;SDS011;25451;51.960;6.250;2024-01-15T04:05:21;1.90;;;0.77;;
39772;SDS011;25451;51.960;6.250;2024-01-15T04:07:46;7.97;;;1.02;;
39772;SDS011;25451;51.960;6.250;2024-01-15T04:10:12;4.07;;;1.02;;
39772;SDS011;25451;51.960;6.250;2024-01-15T04:12:37;3.23;;;0.80;;
39772;SDS011;25451;51.960;6.250;2024-01-15T04:15:03;1.77;;;0.80;;
39772;SDS011;25451;51.960;6.250;2024-01-15T04:17:28;4.50;;;0.70;;
39772;SDS011;25451;51.960;6.250;2024-01-15T04:19:54;3.57;;;0.60;;
39772;SDS011;25451;51.960;6.250;2024-01-15T04:22:19;2.67;;;0.80;;
39772;SDS011;25451;51.960;6.250;2024-01-15T04:24:44;3.60;;;0.97;;
39772;SDS011;25451;51.960;6.250;2024-01-15T04:27:10;2.53;;;0.80;;
39772;SDS011;25451;51.960;6.250;2024-01-15T04:29:37;5.57;;;1.03;;
39772;SDS011;25451;51.960;6.250;2024-01-15T04:32:04;5.50;;;0.98;;
39772;SDS011;25451;51.960;6.250;2024-01-15T04:34:29;2.73;;;0.90;;
39772;SDS011;25451;51.960;6.250;2024-01-15T04:36:54;3.27;;;0.60;;
39772;SDS011;25451;51.960;6.250;2024-01-15T04:39:20;1.60;;;0.70;;
39772;SDS011;25451;51.960;6.250;2024-01-15T04:41:45;1.23;;;0.50;;
39772;SDS011;25451;51.960;6.250;2024-01-15T04:44:10;5.72;;;0.93;;
39772;SDS011;25451;51.960;6.250;2024-01-15T04:46:35;3.97;;;0.90;;
39772;SDS011;25451;51.960;6.250;2024-01-15T04:49:01;3.53;;;0.80;;
39772;SDS011;25451;51.960;6.250;2024-01-15T04:51:26;4.40;;;0.90;;
39772;SDS011;25451;51.960;6.250;2024-01-15T04:53:51;4.00;;;1.07;;
39772;SDS011;25451;51.960;6.250;2024-01-15T04:56:17;2.60;;;0.50;;
39772;SDS011;25451;51.960;6.250;2024-01-15T04:58:42;4.70;;;0.90;;
39772;SDS011;25451;51.960;6.250;2024-01-15T05:01:07;3.53;;;0.93;;
39772;SDS011;25451;51.960;6.250;2024-01-15T05:03:33;2.93;;;0.77;;
39772;SDS011;25451;51.960;6.250;2024-01-15T05:05:58;4.67;;;1.03;;
39772;SDS011;25451;51.960;6.250;2024-01-15T05:08:23;6.50;;;1.10;;
39772;SDS011;25451;51.960;6.250;2024-01-15T05:10:49;4.63;;;1.00;;
39772;SDS011;25451;51.960;6.250;2024-01-15T05:13:14;4.20;;;0.83;;
39772;SDS011;25451;51.960;6.250;2024-01-15T05:15:39;3.40;;;0.80;;
39772;SDS011;25451;51.960;6.250;2024-01-15T05:18:05;2.45;;;1.05;;
39772;SDS011;25451;51.960;6.250;2024-01-15T05:20:31;2.57;;;0.80;;
39772;SDS011;25451;51.960;6.250;2024-01-15T05:22:56;2.78;;;1.10;;
39772;SDS011;25451;51.960;6.250;2024-01-15T05:25:22;4.97;;;1.23;;
39772;SDS011;25451;51.960;6.250;2024-01-15T05:27:47;2.63;;;0.97;;
39772;SDS011;25451;51.960;6.250;2024-01-15T05:30:13;5.93;;;1.20;;
39772;SDS011;25451;51.960;6.250;2024-01-15T05:32:38;4.60;;;0.98;;
39772;SDS011;25451;51.960;6.250;2024-01-15T05:35:04;5.27;;;1.27;;
39772;SDS011;25451;51.960;6.250;2024-01-15T05:37:29;7.28;;;1.50;;
39772;SDS011;25451;51.960;6.250;2024-01-15T05:39:55;1.40;;;0.88;;
39772;SDS011;25451;51.960;6.250;2024-01-15T05:42:20;3.30;;;1.00;;
39772;SDS011;25451;51.960;6.250;2024-01-15T05:44:46;3.70;;;1.10;;
39772;SDS011;25451;51.960;6.250;2024-01-15T05:47:11;5.93;;;1.03;;
39772;SDS011;25451;51.960;6.250;2024-01-15T05:49:36;4.10;;;1.00;;
39772;SDS011;25451;51.960;6.250;2024-01-15T05:52:02;3.90;;;1.03;;
39772;SDS011;25451;51.960;6.250;2024-01-15T05:54:27;3.10;;;0.90;;
39772;SDS011;25451;51.960;6.250;2024-01-15T05:56:52;1.60;;;0.87;;
39772;SDS011;25451;51.960;6.250;2024-01-15T05:59:17;2.20;;;0.90;;
39772;SDS011;25451;51.960;6.250;2024-01-15T06:01:43;2.10;;;0.77;;
39772;SDS011;25451;51.960;6.250;2024-01-15T06:04:08;2.13;;;0.90;;
39772;SDS011;25451;51.960;6.250;2024-01-15T06:06:33;4.13;;;1.03;;
39772;SDS011;25451;51.960;6.250;2024-01-15T06:08:59;2.10;;;0.97;;
39772;SDS011;25451;51.960;6.250;2024-01-15T06:11:30;3.55;;;0.93;;
39772;SDS011;25451;51.960;6.250;2024-01-15T06:13:59;4.97;;;0.93;;
39772;SDS011;25451;51.960;6.250;2024-01-15T06:16:28;3.40;;;0.82;;
39772;SDS011;25451;51.960;6.250;2024-01-15T06:18:53;2.17;;;0.90;;
39772;SDS011;25451;51.960;6.250;2024-01-15T06:21:19;2.27;;;0.93;;
39772;SDS011;25451;51.960;6.250;2024-01-15T07:07:25;3.00;;;1.10;;
39772;SDS011;25451;51.960;6.250;2024-01-15T07:09:53;1.60;;;1.00;;
39772;SDS011;25451;51.960;6.250;2024-01-15T07:12:19;5.40;;;1.63;;
39772;SDS011;25451;51.960;6.250;2024-01-15T07:14:44;2.37;;;1.20;;
39772;SDS011;25451;51.960;6.250;2024-01-15T07:17:10;3.50;;;1.15;;
39772;SDS011;25451;51.960;6.250;2024-01-15T07:19:35;2.17;;;1.23;;
39772;SDS011;25451;51.960;6.250;2024-01-15T07:22:01;2.55;;;1.20;;
39772;SDS011;25451;51.960;6.250;2024-01-15T07:24:26;3.77;;;1.30;;
39772;SDS011;25451;51.960;6.250;2024-01-15T07:26:52;3.30;;;1.40;;
39772;SDS011;25451;51.960;6.250;2024-01-15T07:29:17;4.47;;;1.30;;
39772;SDS011;25451;51.960;6.250;2024-01-15T07:31:51;1.97;;;1.20;;
39772;SDS011;25451;51.960;6.250;2024-01-15T07:34:17;2.67;;;1.40;;
39772;SDS011;25451;51.960;6.250;2024-01-15T07:36:46;2.50;;;1.40;;
39772;SDS011;25451;51.960;6.250;2024-01-15T07:39:11;2.63;;;1.38;;
39772;SDS011;25451;51.960;6.250;2024-01-15T07:41:36;5.30;;;1.70;;
39772;SDS011;25451;51.960;6.250;2024-01-15T07:44:02;3.37;;;1.87;;
39772;SDS011;25451;51.960;6.250;2024-01-15T07:46:27;4.07;;;2.10;;
39772;SDS011;25451;51.960;6.250;2024-01-15T07:48:53;5.30;;;2.43;;
39772;SDS011;25451;51.960;6.250;2024-01-15T07:51:24;4.80;;;2.10;;
39772;SDS011;25451;51.960;6.250;2024-01-15T07:53:50;4.55;;;2.38;;
39772;SDS011;25451;51.960;6.250;2024-01-15T07:56:18;4.53;;;2.80;;
39772;SDS011;25451;51.960;6.250;2024-01-15T07:58:43;5.40;;;2.70;;
39772;SDS011;25451;51.960;6.250;2024-01-15T08:01:08;4.97;;;2.97;;
39772;SDS011;25451;51.960;6.250;2024-01-15T08:03:34;5.40;;;2.93;;
39772;SDS011;25451;51.960;6.250;2024-01-15T08:05:59;5.20;;;2.57;;
39772;SDS011;25451;51.960;6.250;2024-01-15T08:08:25;6.27;;;2.83;;
39772;SDS011;25451;51.960;6.250;2024-01-15T08:10:53;4.43;;;2.50;;
39772;SDS011;25451;51.960;6.250;2024-01-15T08:13:19;5.13;;;2.77;;
39772;SDS011;25451;51.960;6.250;2024-01-15T08:15:45;4.35;;;2.70;;
39772;SDS011;25451;51.960;6.250;2024-01-15T08:18:10;4.73;;;2.90;;
39772;SDS011;25451;51.960;6.250;2024-01-15T08:20:35;4.27;;;2.73;;
39772;SDS011;25451;51.960;6.250;2024-01-15T08:23:01;4.10;;;2.67;;
39772;SDS011;25451;51.960;6.250;2024-01-15T08:25:26;4.53;;;2.57;;
39772;SDS011;25451;51.960;6.250;2024-01-15T08:27:51;5.73;;;2.13;;
39772;SDS011;25451;51.960;6.250;2024-01-15T08:30:17;3.80;;;2.20;;
39772;SDS011;25451;51.960;6.250;2024-01-15T08:32:43;4.07;;;2.30;;
39772;SDS011;25451;51.960;6.250;2024-01-15T08:35:10;3.63;;;2.33;;
39772;SDS011;25451;51.960;6.250;2024-01-15T08:37:36;4.60;;;2.70;;
39772;SDS011;25451;51.960;6.250;2024-01-15T08:40:02;3.55;;;1.80;;
39772;SDS011;25451;51.960;6.250;2024-01-15T08:42:28;4.32;;;2.30;;
39772;SDS011;25451;51.960;6.250;2024-01-15T08:44:53;3.47;;;2.03;;
39772;SDS011;25451;51.960;6.250;2024-01-15T08:47:18;4.03;;;2.07;;
39772;SDS011;25451;51.960;6.250;2024-01-15T08:49:44;4.60;;;2.00;;
39772;SDS011;25451;51.960;6.250;2024-01-15T08:52:10;4.28;;;2.13;;
39772;SDS011;25451;51.960;6.250;2024-01-15T08:54:35;2.83;;;1.80;;
39772;SDS011;25451;51.960;6.250;2024-01-15T08:57:01;3.90;;;2.07;;
39772;SDS011;25451;51.960;6.250;2024-01-15T08:59:26;3.73;;;1.97;;
39772;SDS011;25451;51.960;6.250;2024-01-15T09:01:52;3.30;;;2.03;;
39772;SDS011;25451;51.960;6.250;2024-01-15T09:04:18;3.33;;;1.90;;
39772;SDS011;25451;51.960;6.250;2024-01-15T09:06:44;3.42;;;1.85;;
39772;SDS011;25451;51.960;6.250;2024-01-15T09:09:12;3.05;;;1.60;;
39772;SDS011;25451;51.960;6.250;2024-01-15T09:11:37;3.25;;;1.75;;
39772;SDS011;25451;51.960;6.250;2024-01-15T09:14:02;3.40;;;1.90;;
39772;SDS011;25451;51.960;6.250;2024-01-15T09:16:28;3.03;;;1.55;;
39772;SDS011;25451;51.960;6.250;2024-01-15T09:18:53;2.97;;;1.67;;
39772;SDS011;25451;51.960;6.250;2024-01-15T09:21:21;3.15;;;1.60;;
39772;SDS011;25451;51.960;6.250;2024-01-15T09:23:47;4.13;;;1.47;;
39772;SDS011;25451;51.960;6.250;2024-01-15T09:26:12;2.83;;;1.33;;
39772;SDS011;25451;51.960;6.250;2024-01-15T09:28:37;3.37;;;1.50;;
39772;SDS011;25451;51.960;6.250;2024-01-15T09:31:03;4.20;;;1.50;;
39772;SDS011;25451;51.960;6.250;2024-01-15T09:33:28;3.63;;;1.30;;
39772;SDS011;25451;51.960;6.250;2024-01-15T09:35:53;3.73;;;1.30;;
39772;SDS011;25451;51.960;6.250;2024-01-15T09:38:19;3.60;;;1.20;;
39772;SDS011;25451;51.960;6.250;2024-01-15T09:40:45;3.15;;;1.00;;
39772;SDS011;25451;51.960;6.250;2024-01-15T09:43:11;2.95;;;1.23;;
39772;SDS011;25451;51.960;6.250;2024-01-15T09:45:37;3.33;;;1.33;;
39772;SDS011;25451;51.960;6.250;2024-01-15T09:48:03;4.17;;;1.27;;
39772;SDS011;25451;51.960;6.250;2024-01-15T09:50:29;2.40;;;1.20;;
39772;SDS011;25451;51.960;6.250;2024-01-15T09:52:54;2.60;;;1.17;;
39772;SDS011;25451;51.960;6.250;2024-01-15T09:55:22;3.05;;;1.40;;
39772;SDS011;25451;51.960;6.250;2024-01-15T09:57:48;2.50;;;1.37;;
39772;SDS011;25451;51.960;6.250;2024-01-15T10:00:17;2.95;;;1.40;;
39772;SDS011;25451;51.960;6.250;2024-01-15T10:02:43;4.57;;;1.90;;
39772;SDS011;25451;51.960;6.250;2024-01-15T10:05:09;5.53;;;1.40;;
39772;SDS011;25451;51.960;6.250;2024-01-15T10:07:35;2.95;;;1.50;;
39772;SDS011;25451;51.960;6.250;2024-01-15T10:10:02;4.70;;;1.50;;
39772;SDS011;25451;51.960;6.250;2024-01-15T10:12:28;2.63;;;1.42;;
39772;SDS011;25451;51.960;6.250;2024-01-15T10:14:53;3.90;;;1.87;;
39772;SDS011;25451;51.960;6.250;2024-01-15T10:17:19;3.28;;;1.45;;
39772;SDS011;25451;51.960;6.250;2024-01-15T10:19:47;4.43;;;1.70;;
39772;SDS011;25451;51.960;6.250;2024-01-15T10:22:13;3.72;;;1.50;;
39772;SDS011;25451;51.960;6.250;2024-01-15T10:24:40;2.80;;;1.10;;
39772;SDS011;25451;51.960;6.250;2024-01-15T10:27:09;2.33;;;1.10;;
39772;SDS011;25451;51.960;6.250;2024-01-15T10:29:35;4.93;;;1.20;;
39772;SDS011;25451;51.960;6.250;2024-01-15T10:32:08;4.72;;;1.05;;
39772;SDS011;25451;51.960;6.250;2024-01-15T10:34:39;1.90;;;0.90;;
39772;SDS011;25451;51.960;6.250;2024-01-15T10:37:09;2.33;;;0.80;;
39772;SDS011;25451;51.960;6.250;2024-01-15T10:39:35;2.55;;;0.90;;
39772;SDS011;25451;51.960;6.250;2024-01-15T10:42:01;2.70;;;0.90;;
39772;SDS011;25451;51.960;6.250;2024-01-15T10:44:28;2.05;;;0.70;;
39772;SDS011;25451;51.960;6.250;2024-01-15T10:46:54;1.73;;;0.70;;
39772;SDS011;25451;51.960;6.250;2024-01-15T10:49:21;3.17;;;0.90;;
39772;SDS011;25451;51.960;6.250;2024-01-15T10:51:49;2.42;;;0.70;;
39772;SDS011;25451;51.960;6.250;2024-01-15T10:54:16;2.08;;;0.63;;
39772;SDS011;25451;51.960;6.250;2024-01-15T10:56:41;3.10;;;0.70;;
39772;SDS011;25451;51.960;6.250;2024-01-15T10:59:08;1.50;;;0.80;;
39772;SDS011;25451;51.960;6.250;2024-01-15T11:01:35;2.20;;;0.65;;
39772;SDS011;25451;51.960;6.250;2024-01-15T11:04:01;1.58;;;0.80;;
39772;SDS011;25451;51.960;6.250;2024-01-15T11:06:27;4.65;;;0.90;;
39772;SDS011;25451;51.960;6.250;2024-01-15T11:08:53;1.88;;;0.80;;
39772;SDS011;25451;51.960;6.250;2024-01-15T11:11:20;1.93;;;0.70;;
39772;SDS011;25451;51.960;6.250;2024-01-15T11:13:46;2.80;;;0.70;;
39772;SDS011;25451;51.960;6.250;2024-01-15T11:16:14;4.43;;;1.10;;
39772;SDS011;25451;51.960;6.250;2024-01-15T11:18:41;3.03;;;0.90;;
39772;SDS011;25451;51.960;6.250;2024-01-15T11:21:21;3.78;;;1.10;;
39772;SDS011;25451;51.960;6.250;2024-01-15T11:29:03;5.47;;;1.70;;
39772;SDS011;25451;51.960;6.250;2024-01-15T11:34:04;4.20;;;1.50;;
39772;SDS011;25451;51.960;6.250;2024-01-15T11:39:39;3.47;;;1.63;;
39772;SDS011;25451;51.960;6.250;2024-01-15T11:42:04;4.67;;;1.87;;
39772;SDS011;25451;51.960;6.250;2024-01-15T11:44:30;2.80;;;1.42;;
39772;SDS011;25451;51.960;6.250;2024-01-15T11:46:59;4.07;;;1.52;;
39772;SDS011;25451;51.960;6.250;2024-01-15T11:52:02;6.13;;;1.80;;
39772;SDS011;25451;51.960;6.250;2024-01-15T11:54:29;3.13;;;1.70;;
39772;SDS011;25451;51.960;6.250;2024-01-15T11:57:00;3.47;;;1.60;;
39772;SDS011;25451;51.960;6.250;2024-01-15T11:59:32;4.70;;;1.70;;
39772;SDS011;25451;51.960;6.250;2024-01-15T12:01:57;4.73;;;1.40;;
39772;SDS011;25451;51.960;6.250;2024-01-15T12:04:23;3.13;;;1.23;;
39772;SDS011;25451;51.960;6.250;2024-01-15T12:06:49;3.85;;;1.42;;
39772;SDS011;25451;51.960;6.250;2024-01-15T12:09:14;4.90;;;1.30;;
39772;SDS011;25451;51.960;6.250;2024-01-15T12:11:40;4.07;;;1.20;;
39772;SDS011;25451;51.960;6.250;2024-01-15T12:14:12;6.83;;;1.20;;
39772;SDS011;25451;51.960;6.250;2024-01-15T12:16:37;5.43;;;1.30;;
39772;SDS011;25451;51.960;6.250;2024-01-15T12:19:03;12.07;;;1.10;;
39772;SDS011;25451;51.960;6.250;2024-01-15T12:21:28;2.83;;;1.10;;
39772;SDS011;25451;51.960;6.250;2024-01-15T12:23:55;5.57;;;1.30;;
39772;SDS011;25451;51.960;6.250;2024-01-15T12:26:21;4.85;;;1.38;;
39772;SDS011;25451;51.960;6.250;2024-01-15T12:28:46;14.63;;;1.30;;
39772;SDS011;25451;51.960;6.250;2024-01-15T12:31:11;3.08;;;1.05;;
39772;SDS011;25451;51.960;6.250;2024-01-15T12:33:38;3.38;;;0.95;;
39772;SDS011;25451;51.960;6.250;2024-01-15T12:36:03;2.47;;;1.02;;
39772;SDS011;25451;51.960;6.250;2024-01-15T12:38:29;4.57;;;1.10;;
39772;SDS011;25451;51.960;6.250;2024-01-15T12:40:54;3.13;;;0.80;;
39772;SDS011;25451;51.960;6.250;2024-01-15T12:43:19;4.40;;;1.17;;
39772;SDS011;25451;51.960;6.250;2024-01-15T12:45:45;3.87;;;1.00;;
39772;SDS011;25451;51.960;6.250;2024-01-15T12:48:10;4.43;;;1.10;;
39772;SDS011;25451;51.960;6.250;2024-01-15T12:50:36;7.18;;;1.30;;
39772;SDS011;25451;51.960;6.250;2024-01-15T12:53:02;4.20;;;0.80;;
39772;SDS011;25451;51.960;6.250;2024-01-15T12:55:27;3.85;;;0.85;;
39772;SDS011;25451;51.960;6.250;2024-01-15T12:57:52;2.73;;;0.83;;
39772;SDS011;25451;51.960;6.250;2024-01-15T13:00:20;0.97;;;0.60;;
39772;SDS011;25451;51.960;6.250;2024-01-15T13:02:45;2.40;;;0.60;;
39772;SDS011;25451;51.960;6.250;2024-01-15T13:05:11;3.08;;;0.60;;
39772;SDS011;25451;51.960;6.250;2024-01-15T13:07:37;1.97;;;0.40;;
39772;SDS011;25451;51.960;6.250;2024-01-15T13:10:03;4.03;;;0.70;;
39772;SDS011;25451;51.960;6.250;2024-01-15T13:12:28;4.70;;;0.70;;
39772;SDS011;25451;51.960;6.250;2024-01-15T13:14:54;1.23;;;0.50;;
39772;SDS011;25451;51.960;6.250;2024-01-15T13:17:19;4.80;;;0.73;;
39772;SDS011;25451;51.960;6.250;2024-01-15T13:19:46;1.10;;;0.40;;
39772;SDS011;25451;51.960;6.250;2024-01-15T13:22:11;2.90;;;0.60;;
39772;SDS011;25451;51.960;6.250;2024-01-15T13:24:39;0.73;;;0.40;;
39772;SDS011;25451;51.960;6.250;2024-01-15T13:27:04;1.50;;;0.60;;
39772;SDS011;25451;51.960;6.250;2024-01-15T13:29:30;5.78;;;0.40;;
39772;SDS011;25451;51.960;6.250;2024-01-15T13:31:56;2.45;;;0.60;;
39772;SDS011;25451;51.960;6.250;2024-01-15T13:34:22;1.70;;;0.50;;
39772;SDS011;25451;51.960;6.250;2024-01-15T13:36:47;1.83;;;0.53;;
39772;SDS011;25451;51.960;6.250;2024-01-15T13:39:13;0.73;;;0.40;;
39772;SDS011;25451;51.960;6.250;2024-01-15T13:41:38;1.07;;;0.60;;
39772;SDS011;25451;51.960;6.250;2024-01-15T13:44:04;1.90;;;0.70;;
39772;SDS011;25451;51.960;6.250;2024-01-15T13:46:29;1.40;;;0.60;;
39772;SDS011;25451;51.960;6.250;2024-01-15T13:48:55;5.90;;;0.98;;
39772;SDS011;25451;51.960;6.250;2024-01-15T13:51:23;0.83;;;0.50;;
39772;SDS011;25451;51.960;6.250;2024-01-15T13:53:49;2.25;;;0.60;;
39772;SDS011;25451;51.960;6.250;2024-01-15T13:56:15;4.30;;;0.87;;
39772;SDS011;25451;51.960;6.250;2024-01-15T13:58:41;2.10;;;0.63;;
39772;SDS011;25451;51.960;6.250;2024-01-15T14:01:07;2.90;;;0.68;;
39772;SDS011;25451;51.960;6.250;2024-01-15T14:03:33;1.83;;;0.77;;
39772;SDS011;25451;51.960;6.250;2024-01-15T14:05:58;3.23;;;0.80;;
39772;SDS011;25451;51.960;6.250;2024-01-15T14:08:24;3.50;;;0.60;;
39772;SDS011;25451;51.960;6.250;2024-01-15T14:10:49;2.07;;;0.60;;
39772;SDS011;25451;51.960;6.250;2024-01-15T14:13:14;2.65;;;0.60;;
39772;SDS011;25451;51.960;6.250;2024-01-15T14:15:40;2.07;;;0.63;;
39772;SDS011;25451;51.960;6.250;2024-01-15T14:18:05;1.80;;;0.80;;
39772;SDS011;25451;51.960;6.250;2024-01-15T14:20:30;2.87;;;0.73;;
39772;SDS011;25451;51.960;6.250;2024-01-15T14:22:56;4.03;;;0.80;;
39772;SDS011;25451;51.960;6.250;2024-01-15T14:25:21;1.30;;;0.60;;
39772;SDS011;25451;51.960;6.250;2024-01-15T14:27:47;2.70;;;0.60;;
39772;SDS011;25451;51.960;6.250;2024-01-15T14:30:12;2.35;;;0.65;;
39772;SDS011;25451;51.960;6.250;2024-01-15T14:32:39;4.55;;;0.60;;
39772;SDS011;25451;51.960;6.250;2024-01-15T14:35:06;3.50;;;0.80;;
39772;SDS011;25451;51.960;6.250;2024-01-15T14:37:33;2.83;;;0.70;;
39772;SDS011;25451;51.960;6.250;2024-01-15T14:39:58;4.73;;;0.90;;
39772;SDS011;25451;51.960;6.250;2024-01-15T14:42:23;5.23;;;0.80;;
39772;SDS011;25451;51.960;6.250;2024-01-15T14:44:49;3.92;;;0.90;;
39772;SDS011;25451;51.960;6.250;2024-01-15T14:47:14;4.00;;;0.83;;
39772;SDS011;25451;51.960;6.250;2024-01-15T14:49:39;3.60;;;0.53;;
39772;SDS011;25451;51.960;6.250;2024-01-15T14:52:05;2.07;;;0.60;;
39772;SDS011;25451;51.960;6.250;2024-01-15T14:54:31;5.22;;;0.60;;
39772;SDS011;25451;51.960;6.250;2024-01-15T14:56:56;6.00;;;1.17;;
39772;SDS011;25451;51.960;6.250;2024-01-15T14:59:22;2.80;;;0.80;;
39772;SDS011;25451;51.960;6.250;2024-01-15T15:01:47;1.33;;;0.77;;
39772;SDS011;25451;51.960;6.250;2024-01-15T15:04:12;3.27;;;0.90;;
39772;SDS011;25451;51.960;6.250;2024-01-15T15:06:38;2.20;;;0.70;;
39772;SDS011;25451;51.960;6.250;2024-01-15T15:09:03;4.00;;;0.60;;
39772;SDS011;25451;51.960;6.250;2024-01-15T15:11:35;0.95;;;0.60;;
39772;SDS011;25451;51.960;6.250;2024-01-15T15:14:00;3.53;;;0.75;;
39772;SDS011;25451;51.960;6.250;2024-01-15T15:16:26;3.27;;;0.70;;
39772;SDS011;25451;51.960;6.250;2024-01-15T15:18:52;1.88;;;0.57;;
39772;SDS011;25451;51.960;6.250;2024-01-15T15:21:17;1.47;;;0.60;;
39772;SDS011;25451;51.960;6.250;2024-01-15T15:23:43;4.60;;;0.60;;
39772;SDS011;25451;51.960;6.250;2024-01-15T15:26:08;3.07;;;0.53;;
39772;SDS011;25451;51.960;6.250;2024-01-15T15:28:34;3.00;;;0.73;;
39772;SDS011;25451;51.960;6.250;2024-01-15T15:31:02;1.93;;;0.53;;
39772;SDS011;25451;51.960;6.250;2024-01-15T15:33:28;1.63;;;0.75;;
39772;SDS011;25451;51.960;6.250;2024-01-15T15:35:53;2.90;;;0.73;;